Terminal Aerodrome Forecast
Issued by NWS

Home | Current Version | Previous Version | Text Only | Print | Product List | Glossary On
Versions: 1 2 3 4 5 6 7 8 9 10 11 12 13 14 15 16 17 18 19 20
780
FTUS41 KPHI 240540
TAFPNE
TAF
KPNE 240540Z 2406/2506 14010G24KT P6SM VCSH OVC040
      TEMPO 2406/2408 -SHRA
     FM240800 16016G28KT 6SM -SHRA OVC025
     FM241200 15014G24KT 2SM +SHRA OVC015
     FM241700 18009KT 6SM -SHRA OVC015
     FM242000 19007KT P6SM BKN050
     FM250000 19004KT P6SM SCT250
     FM250400 VRB03KT 6SM BR SCT250=

USA.gov is the U.S. government's official web portal to all federal, state and local government web resources and services.